createdAt,value
2022-10-19T00:00:08.383Z,7.37
2022-10-19T00:06:43.281Z,8.25
2022-10-19T00:09:46.336Z,8.68
2022-10-19T00:12:52.409Z,7.70
2022-10-19T00:15:58.875Z,8.40
2022-10-19T00:19:08.243Z,8.40
2022-10-19T00:22:13.842Z,7.80
2022-10-19T00:25:21.361Z,8.20
2022-10-19T00:28:27.369Z,8.13
2022-10-19T00:31:33.219Z,8.32
2022-10-19T00:34:38.159Z,7.68
2022-10-19T00:37:43.331Z,7.28
2022-10-19T00:40:47.558Z,8.00
2022-10-19T00:43:55.359Z,7.60
2022-10-19T00:47:06.181Z,7.80
2022-10-19T00:50:18.804Z,7.10
2022-10-19T00:53:29.028Z,7.65
2022-10-19T00:56:35.353Z,8.02
2022-10-19T00:59:42.029Z,7.32
2022-10-19T01:02:47.170Z,7.45
2022-10-19T01:05:52.302Z,7.57
2022-10-19T01:08:58.873Z,7.60
2022-10-19T01:12:36.450Z,9.75
2022-10-19T01:16:17.688Z,7.80
2022-10-19T01:19:52.352Z,7.35
2022-10-19T01:23:36.540Z,7.85
2022-10-19T01:26:46.762Z,7.80
2022-10-19T01:30:08.195Z,8.63
2022-10-19T01:33:26.297Z,7.93
2022-10-19T01:37:00.907Z,7.37
2022-10-19T01:40:12.854Z,7.82
2022-10-19T01:43:24.808Z,8.68
2022-10-19T01:46:43.283Z,7.28
2022-10-19T01:49:56.572Z,6.97
2022-10-19T01:53:05.881Z,8.15
2022-10-19T01:56:18.621Z,8.48
2022-10-19T01:59:31.466Z,7.68
2022-10-19T02:02:45.631Z,8.43
2022-10-19T02:05:58.535Z,7.90
2022-10-19T02:09:03.313Z,7.87
2022-10-19T02:12:18.440Z,7.82
2022-10-19T02:15:26.615Z,8.18
2022-10-19T02:18:37.259Z,8.50
2022-10-19T02:21:50.219Z,8.65
2022-10-19T02:25:00.813Z,7.90
2022-10-19T02:28:05.807Z,8.07
2022-10-19T02:31:16.000Z,8.55
2022-10-19T02:34:24.562Z,8.82
2022-10-19T02:40:54.717Z,8.82
2022-10-19T02:44:06.435Z,7.87
2022-10-19T02:47:24.353Z,7.62
2022-10-19T02:50:32.015Z,8.32
2022-10-19T02:53:37.207Z,8.38
2022-10-19T02:57:01.602Z,8.13
2022-10-19T03:00:11.368Z,8.05
2022-10-19T03:03:19.554Z,8.30
2022-10-19T03:06:23.909Z,8.52
2022-10-19T03:09:29.544Z,8.00
2022-10-19T03:12:34.676Z,8.00
2022-10-19T03:15:39.087Z,8.25
2022-10-19T03:18:45.782Z,9.00
2022-10-19T03:21:50.847Z,10.82
2022-10-19T03:24:58.363Z,12.18
2022-10-19T03:31:27.797Z,11.25
2022-10-19T03:34:32.437Z,10.63
2022-10-19T03:41:02.974Z,9.45
2022-10-19T03:44:25.182Z,10.25
2022-10-19T03:47:38.312Z,10.20
2022-10-19T03:51:02.413Z,10.18
2022-10-19T03:54:08.575Z,10.40
2022-10-19T03:57:12.454Z,11.10
2022-10-19T04:00:15.188Z,10.63
2022-10-19T04:03:17.349Z,11.00
2022-10-19T04:06:26.917Z,11.60
2022-10-19T04:09:29.402Z,10.98
2022-10-19T04:12:33.184Z,11.93
2022-10-19T04:15:35.954Z,10.50
2022-10-19T04:18:39.055Z,11.88
2022-10-19T04:21:43.801Z,10.70
2022-10-19T04:24:47.021Z,11.35
2022-10-19T04:27:49.657Z,9.85
2022-10-19T04:30:52.624Z,9.52
2022-10-19T04:33:55.337Z,9.70
2022-10-19T04:36:59.597Z,9.82
2022-10-19T04:40:02.575Z,9.38
2022-10-19T04:43:06.330Z,8.93
2022-10-19T04:46:16.601Z,9.85
2022-10-19T04:49:20.711Z,10.35
2022-10-19T04:52:24.513Z,11.55
2022-10-19T04:55:27.375Z,11.10
2022-10-19T04:58:32.870Z,12.57
2022-10-19T05:01:36.953Z,10.77
2022-10-19T05:04:41.862Z,11.30
2022-10-19T05:07:49.401Z,11.17
2022-10-19T05:10:51.748Z,11.82
2022-10-19T05:13:56.096Z,11.30
2022-10-19T05:16:59.516Z,11.88
2022-10-19T05:20:04.257Z,11.23
2022-10-19T05:23:07.449Z,12.25
2022-10-19T05:26:17.409Z,12.18
2022-10-19T05:29:19.629Z,12.02
2022-10-19T05:32:23.204Z,12.55
2022-10-19T05:35:26.078Z,11.93
2022-10-19T05:38:30.022Z,12.85
2022-10-19T05:41:32.397Z,11.45
2022-10-19T05:44:35.917Z,11.63
2022-10-19T05:47:38.030Z,12.48
2022-10-19T05:50:40.487Z,11.15
2022-10-19T05:53:42.639Z,12.20
2022-10-19T05:56:45.612Z,11.60
2022-10-19T05:59:48.325Z,10.98
2022-10-19T06:02:50.805Z,10.75
2022-10-19T06:05:54.469Z,11.77
2022-10-19T06:08:58.973Z,9.55
2022-10-19T06:12:02.599Z,9.48
2022-10-19T06:15:05.114Z,8.90
2022-10-19T06:18:13.063Z,8.45
2022-10-19T06:21:22.469Z,5.80
2022-10-19T06:24:26.200Z,8.68
2022-10-19T06:27:32.039Z,4.93
2022-10-19T06:30:38.191Z,6.72
2022-10-19T06:33:41.785Z,5.53
2022-10-19T06:36:44.486Z,6.35
2022-10-19T06:39:47.059Z,4.90
2022-10-19T06:42:49.501Z,5.10
2022-10-19T06:45:53.032Z,4.47
2022-10-19T06:48:58.330Z,4.28
2022-10-19T06:52:02.305Z,4.28
2022-10-19T06:55:05.369Z,3.72
2022-10-19T06:58:07.682Z,4.72
2022-10-19T07:01:13.923Z,4.22
2022-10-19T07:04:16.149Z,4.32
2022-10-19T07:07:19.626Z,4.80
2022-10-19T07:10:21.780Z,4.60
2022-10-19T07:13:25.165Z,3.83
2022-10-19T07:16:27.330Z,4.40
2022-10-19T07:19:30.035Z,4.40
2022-10-19T07:22:32.444Z,4.00
2022-10-19T07:25:36.430Z,4.20
2022-10-19T07:28:40.745Z,4.40
2022-10-19T07:31:43.415Z,3.70
2022-10-19T07:34:45.580Z,4.53
2022-10-19T07:37:48.120Z,4.12
2022-10-19T07:40:53.704Z,4.72
2022-10-19T07:43:57.961Z,3.90
2022-10-19T07:47:00.271Z,4.22
2022-10-19T07:50:04.457Z,4.57
2022-10-19T07:53:12.684Z,4.45
2022-10-19T07:56:23.059Z,4.70
2022-10-19T07:59:30.183Z,4.70
2022-10-19T08:02:54.776Z,4.90
2022-10-19T08:06:10.314Z,4.25
2022-10-19T08:09:27.628Z,4.95
2022-10-19T08:12:37.879Z,5.93
2022-10-19T08:15:42.963Z,4.32
2022-10-19T08:18:46.825Z,4.68
2022-10-19T08:21:49.668Z,4.70
2022-10-19T08:24:52.313Z,4.22
2022-10-19T08:27:54.500Z,3.85
2022-10-19T08:30:58.928Z,4.57
2022-10-19T08:34:01.610Z,4.22
2022-10-19T08:37:10.467Z,4.32
2022-10-19T08:40:29.306Z,4.57
2022-10-19T08:43:40.986Z,4.93
2022-10-19T08:47:12.191Z,4.12
2022-10-19T08:50:25.686Z,4.37
2022-10-19T08:53:43.384Z,4.57
2022-10-19T08:57:05.334Z,4.28
2022-10-19T09:00:23.018Z,3.80
2022-10-19T09:03:55.091Z,4.97
2022-10-19T09:07:20.412Z,4.40
2022-10-19T09:10:40.597Z,4.57
2022-10-19T09:17:20.205Z,3.80
2022-10-19T09:20:30.836Z,4.22
2022-10-19T09:23:56.549Z,3.75
2022-10-19T09:31:32.893Z,3.37
2022-10-19T09:34:41.490Z,2.87
2022-10-19T09:37:47.591Z,3.12
2022-10-19T09:40:50.125Z,3.30
2022-10-19T09:43:55.164Z,3.90
2022-10-19T09:47:22.907Z,3.22
2022-10-19T09:50:27.575Z,3.15
2022-10-19T09:53:30.802Z,3.90
2022-10-19T09:56:38.203Z,3.15
2022-10-19T09:59:42.829Z,2.95
2022-10-19T10:02:57.090Z,3.58
2022-10-19T10:06:05.357Z,3.22
2022-10-19T10:09:07.845Z,3.78
2022-10-19T10:12:25.905Z,3.50
2022-10-19T10:15:48.240Z,3.58
2022-10-19T10:18:55.787Z,3.50
2022-10-19T10:21:59.712Z,2.87
2022-10-19T10:25:10.279Z,3.25
2022-10-19T10:28:21.609Z,3.35
2022-10-19T10:31:27.913Z,3.53
2022-10-19T10:34:58.570Z,3.55
2022-10-19T10:38:13.739Z,2.83
2022-10-19T10:41:20.168Z,1.77
2022-10-19T10:44:26.618Z,1.60
2022-10-19T10:47:46.187Z,1.23
2022-10-19T10:50:59.412Z,1.35
2022-10-19T10:54:31.761Z,1.50
2022-10-19T10:57:40.091Z,1.58
2022-10-19T11:00:44.397Z,1.10
2022-10-19T11:03:56.281Z,1.52
2022-10-19T11:07:04.105Z,1.55
2022-10-19T11:10:31.564Z,1.20
2022-10-19T11:13:41.325Z,1.00
2022-10-19T11:16:46.695Z,1.10
2022-10-19T11:19:51.356Z,0.80
2022-10-19T11:23:19.319Z,0.90
2022-10-19T11:26:42.983Z,1.17
2022-10-19T11:29:51.526Z,1.35
2022-10-19T11:33:20.102Z,1.15
2022-10-19T11:36:38.228Z,1.48
2022-10-19T11:40:22.225Z,1.20
2022-10-19T11:43:50.007Z,1.12
2022-10-19T11:47:14.613Z,1.37
2022-10-19T11:50:19.919Z,1.23
2022-10-19T11:53:40.140Z,1.70
2022-10-19T11:57:13.343Z,1.20
2022-10-19T12:00:38.031Z,1.20
2022-10-19T12:03:50.132Z,1.33
2022-10-19T12:07:21.198Z,1.00
2022-10-19T12:10:40.351Z,1.20
2022-10-19T12:13:52.519Z,1.08
2022-10-19T12:17:00.020Z,1.33
2022-10-19T12:20:09.653Z,1.10
2022-10-19T12:23:21.415Z,1.00
2022-10-19T12:26:25.680Z,1.20
2022-10-19T12:29:33.225Z,0.98
2022-10-19T12:32:44.189Z,1.12
2022-10-19T12:36:01.639Z,1.00
2022-10-19T12:39:21.960Z,1.30
2022-10-19T12:42:51.498Z,1.17
2022-10-19T12:46:07.807Z,1.17
2022-10-19T12:49:28.722Z,1.00
2022-10-19T12:52:42.228Z,1.30
2022-10-19T12:55:45.670Z,1.23
2022-10-19T12:59:01.625Z,1.08
2022-10-19T13:02:45.593Z,1.60
2022-10-19T14:02:45.049Z,1.62
2022-10-19T14:06:30.413Z,2.25
2022-10-19T14:09:51.599Z,1.92
2022-10-19T14:13:18.586Z,1.83
2022-10-19T14:16:56.072Z,2.58
2022-10-19T14:23:38.579Z,2.25
2022-10-19T14:26:49.907Z,2.50
2022-10-19T14:29:55.197Z,2.50
2022-10-19T14:36:51.006Z,2.45
2022-10-19T14:40:26.497Z,2.67
